createdAt,value
2019-02-24T00:01:52.708Z,6.40
2019-02-24T00:04:10.522Z,6.40
2019-02-24T00:06:27.673Z,6.30
2019-02-24T00:08:46.795Z,6.30
2019-02-24T00:11:39.094Z,6.20
2019-02-24T00:13:31.961Z,6.10
2019-02-24T00:18:28.047Z,6.00
2019-02-24T00:20:44.777Z,6.00
2019-02-24T00:23:05.877Z,6.00
2019-02-24T00:28:52.596Z,6.00
2019-02-24T00:31:21.120Z,5.90
2019-02-24T00:33:32.944Z,5.90
2019-02-24T00:35:49.617Z,5.80
2019-02-24T00:40:31.167Z,5.70
2019-02-24T00:43:24.607Z,5.70
2019-02-24T00:45:41.669Z,5.70
2019-02-24T00:47:48.119Z,5.70
2019-02-24T00:52:58.824Z,5.70
2019-02-24T00:56:13.742Z,5.60
2019-02-24T00:58:15.594Z,5.60
2019-02-24T01:00:41.815Z,5.70
2019-02-24T01:02:58.573Z,5.60
2019-02-24T01:05:33.674Z,5.60
2019-02-24T01:08:22.100Z,5.50
2019-02-24T01:10:06.239Z,5.50
2019-02-24T01:12:23.756Z,5.60
2019-02-24T01:17:19.748Z,5.70
2019-02-24T01:19:44.278Z,5.60
2019-02-24T01:22:21.680Z,5.60
2019-02-24T01:24:34.939Z,5.60
2019-02-24T01:27:06.088Z,5.50
2019-02-24T01:29:49.221Z,5.60
2019-02-24T01:31:46.023Z,5.70
2019-02-24T01:34:50.535Z,5.70
2019-02-24T01:39:10.519Z,5.60
2019-02-24T01:41:34.643Z,5.70
2019-02-24T01:43:50.855Z,5.70
2019-02-24T01:46:29.936Z,5.60
2019-02-24T01:48:38.667Z,5.60
2019-02-24T01:53:38.907Z,5.50
2019-02-24T01:55:55.311Z,5.50
2019-02-24T01:58:16.283Z,5.60
2019-02-24T02:01:12.141Z,5.60
2019-02-24T02:08:59.830Z,5.40
2019-02-24T02:13:30.426Z,5.50
2019-02-24T02:15:53.159Z,5.60
2019-02-24T02:18:13.515Z,5.60
2019-02-24T02:20:29.867Z,5.40
2019-02-24T02:22:47.752Z,5.40
2019-02-24T02:25:04.754Z,5.40
2019-02-24T02:27:58.301Z,5.30
2019-02-24T02:32:08.748Z,5.40
2019-02-24T02:34:29.358Z,5.20
2019-02-24T02:37:15.477Z,5.20
2019-02-24T02:39:15.755Z,5.10
2019-02-24T02:41:33.891Z,5.10
2019-02-24T02:43:53.194Z,5.00
2019-02-24T02:46:27.835Z,4.80
2019-02-24T02:48:39.721Z,4.80
2019-02-24T02:51:03.093Z,4.70
2019-02-24T02:53:20.180Z,4.70
2019-02-24T02:55:40.413Z,4.70
2019-02-24T02:58:00.905Z,4.60
2019-02-24T03:03:20.070Z,4.50
2019-02-24T03:05:41.106Z,4.50
2019-02-24T03:08:18.991Z,4.40
2019-02-24T03:10:59.413Z,4.40
2019-02-24T03:13:07.983Z,4.50
2019-02-24T03:18:05.025Z,4.60
2019-02-24T03:23:14.350Z,4.50
2019-02-24T03:27:26.519Z,4.60
2019-02-24T03:29:43.469Z,4.60
2019-02-24T03:32:00.388Z,4.50
2019-02-24T03:34:23.446Z,4.50
2019-02-24T03:36:40.445Z,4.40
2019-02-24T03:42:13.876Z,4.40
2019-02-24T03:44:09.451Z,4.30
2019-02-24T03:46:31.819Z,4.30
2019-02-24T03:49:13.087Z,4.40
2019-02-24T03:54:02.646Z,4.40
2019-02-24T03:56:19.569Z,4.40
2019-02-24T03:58:37.005Z,4.40
2019-02-24T04:01:01.447Z,4.50
2019-02-24T04:03:37.914Z,4.50
2019-02-24T04:08:34.872Z,4.50
2019-02-24T04:13:32.529Z,4.40
2019-02-24T04:16:17.429Z,4.30
2019-02-24T04:20:32.167Z,4.50
2019-02-24T04:22:50.874Z,4.40
2019-02-24T04:25:15.669Z,4.30
2019-02-24T04:27:36.073Z,4.30
2019-02-24T04:32:51.445Z,4.20
2019-02-24T04:35:07.334Z,4.20
2019-02-24T04:37:27.888Z,4.10
2019-02-24T04:41:09.538Z,4.10
2019-02-24T04:42:14.608Z,4.20
2019-02-24T04:44:34.020Z,4.20
2019-02-24T04:47:00.728Z,4.20
2019-02-24T04:49:18.390Z,4.20
2019-02-24T04:51:42.939Z,4.20
2019-02-24T04:54:00.427Z,4.20
2019-02-24T04:56:18.028Z,4.10
2019-02-24T04:58:36.702Z,4.10
2019-02-24T05:00:56.276Z,4.10
2019-02-24T05:03:43.585Z,4.00
2019-02-24T05:06:14.954Z,3.90
2019-02-24T05:10:36.140Z,3.90
2019-02-24T05:12:57.170Z,3.90
2019-02-24T05:15:19.396Z,3.90
2019-02-24T05:17:39.185Z,3.90
2019-02-24T05:20:14.011Z,3.90
2019-02-24T05:22:23.568Z,3.90
2019-02-24T05:24:45.205Z,3.90
2019-02-24T05:27:01.972Z,3.90
2019-02-24T05:31:55.428Z,3.90
2019-02-24T05:34:32.235Z,3.90
2019-02-24T05:36:48.848Z,3.90
2019-02-24T05:39:10.095Z,4.00
2019-02-24T05:41:43.410Z,4.00
2019-02-24T05:44:18.692Z,4.10
2019-02-24T05:46:14.181Z,4.00
2019-02-24T05:48:39.011Z,4.00
2019-02-24T05:50:58.831Z,4.00
2019-02-24T05:53:15.596Z,4.00
2019-02-24T05:55:32.549Z,4.00
2019-02-24T05:57:40.650Z,4.00
2019-02-24T05:59:58.492Z,4.00
2019-02-24T06:02:45.671Z,4.00
2019-02-24T06:07:53.248Z,3.90
2019-02-24T06:10:03.957Z,3.90
2019-02-24T06:12:21.077Z,3.90
2019-02-24T06:15:06.904Z,3.90
2019-02-24T06:17:02.960Z,3.90
2019-02-24T06:19:24.803Z,3.90
2019-02-24T06:21:44.909Z,3.90
2019-02-24T06:24:06.732Z,3.80
2019-02-24T06:29:35.274Z,4.00
2019-02-24T06:32:00.796Z,3.90
2019-02-24T06:34:21.595Z,3.90
2019-02-24T06:36:21.709Z,3.90
2019-02-24T06:38:38.932Z,3.90
2019-02-24T06:41:13.481Z,3.90
2019-02-24T06:43:39.597Z,3.90
2019-02-24T06:45:48.723Z,4.00
2019-02-24T06:48:10.103Z,4.20
2019-02-24T06:50:35.313Z,4.40
2019-02-24T06:53:01.697Z,4.50
2019-02-24T06:55:58.052Z,4.60
2019-02-24T06:57:50.287Z,4.80
2019-02-24T07:00:25.777Z,4.90
2019-02-24T07:02:18.489Z,5.00
2019-02-24T07:08:07.392Z,5.30
2019-02-24T07:10:59.178Z,5.50
2019-02-24T07:12:57.362Z,5.50
2019-02-24T07:18:20.960Z,5.70
2019-02-24T07:26:29.731Z,6.00
2019-02-24T07:28:24.713Z,6.10
2019-02-24T07:31:01.518Z,6.40
2019-02-24T07:33:38.132Z,6.40
2019-02-24T07:36:03.841Z,6.40
2019-02-24T07:40:55.649Z,6.70
2019-02-24T07:43:24.564Z,6.80
2019-02-24T07:46:28.765Z,7.00
2019-02-24T07:50:56.603Z,7.00
2019-02-24T07:53:12.653Z,7.00
2019-02-24T07:55:40.806Z,7.20
2019-02-24T07:58:24.030Z,7.40
2019-02-24T08:00:45.017Z,7.40
2019-02-24T08:03:33.551Z,7.60
2019-02-24T08:05:30.740Z,7.60
2019-02-24T08:10:24.208Z,7.80
2019-02-24T08:12:42.713Z,7.60
2019-02-24T08:15:05.612Z,7.70
2019-02-24T08:17:28.484Z,7.60
2019-02-24T08:19:45.464Z,7.90
2019-02-24T08:22:02.467Z,8.10
2019-02-24T08:24:18.999Z,8.30
2019-02-24T08:26:41.056Z,8.50
2019-02-24T08:29:03.298Z,8.50
2019-02-24T08:31:25.874Z,8.40
2019-02-24T08:34:05.538Z,8.50
2019-02-24T08:37:04.930Z,8.10
2019-02-24T08:41:23.469Z,8.60
2019-02-24T08:47:14.239Z,8.90
2019-02-24T08:51:43.998Z,9.40
2019-02-24T08:54:19.375Z,9.40
2019-02-24T08:56:36.100Z,9.30
2019-02-24T09:09:34.793Z,9.40
2019-02-24T09:11:55.051Z,9.70
2019-02-24T09:14:21.451Z,9.90
2019-02-24T09:17:03.413Z,10.10
2019-02-24T09:19:07.265Z,10.20
2019-02-24T09:21:26.380Z,10.30
2019-02-24T09:23:54.692Z,10.10
2019-02-24T09:29:24.446Z,10.30
2019-02-24T09:34:50.455Z,10.30
2019-02-24T09:36:56.298Z,10.00
2019-02-24T09:55:48.652Z,10.80
2019-02-24T09:57:36.911Z,10.60
2019-02-24T10:00:04.197Z,10.80
2019-02-24T10:02:27.436Z,11.00
2019-02-24T10:04:49.584Z,11.00
2019-02-24T10:07:14.690Z,11.00
2019-02-24T10:09:58.751Z,10.80
2019-02-24T10:12:42.402Z,10.70
2019-02-24T10:14:34.083Z,10.80
2019-02-24T10:19:46.958Z,11.10
2019-02-24T10:41:39.006Z,10.50
2019-02-24T10:43:22.626Z,10.70
2019-02-24T10:48:27.951Z,11.10
2019-02-24T10:50:52.496Z,11.10
2019-02-24T10:53:12.527Z,11.20
2019-02-24T10:55:33.725Z,11.40
2019-02-24T10:58:08.435Z,11.80
2019-02-24T11:01:09.061Z,11.90
2019-02-24T11:03:38.972Z,12.00
2019-02-24T11:06:26.796Z,12.10
2019-02-24T11:08:47.600Z,12.00
2019-02-24T11:11:15.325Z,11.90
2019-02-24T11:14:01.576Z,11.80
2019-02-24T11:16:14.384Z,12.20
2019-02-24T11:18:40.209Z,12.20
2019-02-24T11:24:35.941Z,12.50
2019-02-24T11:27:12.168Z,12.50
2019-02-24T11:35:46.116Z,12.90
2019-02-24T11:41:30.701Z,13.20
2019-02-24T11:47:11.928Z,13.50
2019-02-24T11:51:37.544Z,13.10
2019-02-24T12:05:41.490Z,13.30
2019-02-24T12:08:06.299Z,13.50
2019-02-24T12:10:13.773Z,13.60
2019-02-24T12:12:34.682Z,14.10
2019-02-24T12:20:39.818Z,13.90
2019-02-24T12:22:47.653Z,13.60
2019-02-24T12:25:09.038Z,13.70
2019-02-24T12:30:38.828Z,14.20
2019-02-24T12:33:16.382Z,14.50
2019-02-24T12:43:31.429Z,15.00
2019-02-24T12:46:13.830Z,15.00
2019-02-24T12:56:14.997Z,14.80
2019-02-24T12:59:20.043Z,15.00
2019-02-24T13:01:26.727Z,15.00
2019-02-24T13:03:33.614Z,15.10
2019-02-24T13:05:55.419Z,15.40
2019-02-24T13:08:23.444Z,15.60
2019-02-24T13:13:54.345Z,15.60
2019-02-24T13:16:39.738Z,15.70
2019-02-24T13:18:39.883Z,15.90
2019-02-24T13:21:42.245Z,16.10
2019-02-24T13:24:47.256Z,15.90
2019-02-24T13:26:55.265Z,15.80
2019-02-24T13:29:49.628Z,15.60
2019-02-24T13:32:14.706Z,15.70
2019-02-24T13:34:18.187Z,15.50
2019-02-24T13:36:41.503Z,15.70
2019-02-24T13:44:28.852Z,15.70
2019-02-24T13:46:51.360Z,16.00
2019-02-24T13:54:54.942Z,16.00
2019-02-24T13:57:18.086Z,15.90
2019-02-24T13:59:48.174Z,16.20
2019-02-24T14:07:09.911Z,16.20
2019-02-24T14:09:52.246Z,16.50
2019-02-24T14:12:00.320Z,16.50
2019-02-24T14:16:40.291Z,16.50
2019-02-24T14:19:02.024Z,16.40
2019-02-24T14:35:27.574Z,16.80
2019-02-24T14:37:34.493Z,16.60
2019-02-24T14:40:01.424Z,16.40
2019-02-24T14:42:52.242Z,16.30
2019-02-24T14:45:15.754Z,16.50
2019-02-24T14:53:41.883Z,16.00
2019-02-24T14:56:39.635Z,16.30
2019-02-24T14:59:02.474Z,16.90
2019-02-24T15:07:28.241Z,17.10
2019-02-24T15:09:48.291Z,17.10
2019-02-24T15:11:55.773Z,17.20
2019-02-24T15:14:33.770Z,17.40
2019-02-24T15:20:33.622Z,17.80
2019-02-24T15:23:11.137Z,18.20
2019-02-24T15:25:10.259Z,18.70
2019-02-24T15:30:05.899Z,18.90
2019-02-24T15:35:07.132Z,18.10
2019-02-24T15:37:30.931Z,18.10
2019-02-24T15:40:05.049Z,18.00
2019-02-24T15:56:00.597Z,19.20
2019-02-24T15:58:20.577Z,19.20
2019-02-24T16:03:22.904Z,19.00
2019-02-24T16:05:47.121Z,19.00
2019-02-24T16:10:56.830Z,19.10
2019-02-24T16:16:10.190Z,19.00
2019-02-24T16:18:53.614Z,19.00
2019-02-24T16:24:14.626Z,18.70
2019-02-24T16:31:50.225Z,17.90
2019-02-24T16:34:16.965Z,17.50
2019-02-24T16:36:43.318Z,17.20
2019-02-24T16:39:06.155Z,16.70
2019-02-24T16:41:40.351Z,16.10
2019-02-24T16:44:36.766Z,15.60
2019-02-24T16:52:52.060Z,14.60
2019-02-24T16:55:42.178Z,14.20
2019-02-24T16:58:12.089Z,13.90
2019-02-24T17:00:30.734Z,13.70
2019-02-24T17:03:19.443Z,13.60
2019-02-24T17:06:45.444Z,13.60
2019-02-24T17:09:00.558Z,13.30
2019-02-24T17:11:24.118Z,13.20
2019-02-24T17:13:44.814Z,13.10
2019-02-24T17:16:12.491Z,13.00
2019-02-24T17:18:33.326Z,12.90
2019-02-24T17:24:08.145Z,12.60
2019-02-24T17:29:08.976Z,12.50
2019-02-24T17:34:32.617Z,12.20
2019-02-24T17:37:20.658Z,12.10
2019-02-24T17:39:42.558Z,12.10
2019-02-24T17:42:24.722Z,12.00
2019-02-24T17:44:29.410Z,12.20
2019-02-24T17:46:48.998Z,12.30
2019-02-24T17:49:34.531Z,12.20
2019-02-24T17:54:29.417Z,12.00
2019-02-24T17:56:59.972Z,11.80
2019-02-24T17:59:22.901Z,11.50
2019-02-24T18:04:58.093Z,11.40
2019-02-24T18:07:57.481Z,11.50
2019-02-24T18:10:30.040Z,11.40
2019-02-24T18:15:05.126Z,11.00
2019-02-24T18:20:11.648Z,11.10
2019-02-24T18:28:44.299Z,10.90
2019-02-24T18:31:08.347Z,11.00
2019-02-24T18:33:47.887Z,11.20
2019-02-24T18:38:57.600Z,11.00
2019-02-24T18:59:57.386Z,11.10
2019-02-24T19:02:22.493Z,11.10
2019-02-24T19:04:48.602Z,11.10
2019-02-24T19:07:25.213Z,10.90
2019-02-24T19:12:54.790Z,10.70
2019-02-24T19:15:12.650Z,10.70
2019-02-24T19:20:29.595Z,10.80
2019-02-24T19:25:57.195Z,11.10
2019-02-24T19:28:08.719Z,11.10
2019-02-24T19:30:28.006Z,11.10
2019-02-24T19:33:29.090Z,11.00
2019-02-24T19:35:58.475Z,11.00
2019-02-24T19:38:28.103Z,11.10
2019-02-24T19:41:24.811Z,10.90
2019-02-24T19:43:35.639Z,11.00
2019-02-24T19:46:33.246Z,11.00
2019-02-24T19:48:23.047Z,10.90
2019-02-24T19:53:18.309Z,10.90
2019-02-24T19:59:13.017Z,10.50
2019-02-24T20:01:37.308Z,10.80
2019-02-24T20:12:42.413Z,10.70
2019-02-24T20:14:58.245Z,10.50
2019-02-24T20:22:32.711Z,9.60
2019-02-24T20:25:20.003Z,9.40
2019-02-24T20:27:33.700Z,9.30
2019-02-24T20:30:22.381Z,9.10
2019-02-24T20:32:56.403Z,9.20
2019-02-24T20:35:27.571Z,9.30
2019-02-24T20:37:49.372Z,9.30
2019-02-24T20:40:36.861Z,9.30
2019-02-24T20:42:37.550Z,9.20
2019-02-24T20:44:59.262Z,9.10
2019-02-24T20:47:49.233Z,9.00
2019-02-24T20:49:51.984Z,8.90
2019-02-24T20:52:49.804Z,8.90
2019-02-24T20:54:48.375Z,8.80
2019-02-24T20:58:00.612Z,8.80
2019-02-24T21:00:07.911Z,8.70
2019-02-24T21:02:57.211Z,8.60
2019-02-24T21:05:36.099Z,8.40
2019-02-24T21:08:15.158Z,8.20
2019-02-24T21:13:43.577Z,8.20
2019-02-24T21:17:35.479Z,8.30
2019-02-24T21:22:39.249Z,8.50
2019-02-24T21:24:33.380Z,8.60
2019-02-24T21:26:49.162Z,8.70
2019-02-24T21:32:28.797Z,8.80
2019-02-24T21:35:19.884Z,8.50
2019-02-24T21:46:19.143Z,8.70
2019-02-24T22:02:31.718Z,8.70
2019-02-24T22:04:52.037Z,8.50
2019-02-24T22:09:51.614Z,8.50
2019-02-24T22:12:40.148Z,8.70
2019-02-24T22:15:15.964Z,8.90
2019-02-24T22:17:57.543Z,9.00
2019-02-24T22:22:51.082Z,9.20
2019-02-24T22:25:20.474Z,9.10
2019-02-24T22:28:03.609Z,8.70
2019-02-24T22:31:08.802Z,8.40
2019-02-24T22:33:12.511Z,8.40
2019-02-24T22:43:50.559Z,7.90
2019-02-24T22:49:27.645Z,7.80
2019-02-24T23:01:07.130Z,8.00
2019-02-24T23:06:06.631Z,8.40
2019-02-24T23:08:32.402Z,8.50
2019-02-24T23:10:54.484Z,8.60
2019-02-24T23:13:15.271Z,8.70
2019-02-24T23:15:38.743Z,8.80
2019-02-24T23:18:10.528Z,9.00
2019-02-24T23:23:06.673Z,9.00
2019-02-24T23:25:41.734Z,9.00
2019-02-24T23:30:44.390Z,8.70
2019-02-24T23:38:46.344Z,8.50
2019-02-24T23:40:52.103Z,8.40
2019-02-24T23:43:14.212Z,8.40
2019-02-24T23:45:57.455Z,8.30
2019-02-24T23:48:07.275Z,8.30
